Time;durP1;ratioP1;P1;durP2;ratioP2;P2;SDS_P1;SDS_P2;PMS_P1;PMS_P2;Temp;Humidity;BMP_temperature;BMP_pressure;BME280_temperature;BME280_humidity;BME280_pressure;Samples;Min_cycle;Max_cycle;Signal;HPM_P1;HPM_P2
2023/11/19 00:01:27;;;;;;;18.10;9.50;;;7.60;99.90;;;;;;5002561;28;20033;-66
2023/11/19 00:03:53;;;;;;;14.73;8.43;;;7.60;99.90;;;;;;4990702;28;20436;-65
2023/11/19 00:06:19;;;;;;;15.50;8.70;;;7.60;99.90;;;;;;4994917;28;20046;-65
2023/11/19 00:08:44;;;;;;;18.23;10.03;;;7.50;99.90;;;;;;5001378;28;20022;-65
2023/11/19 00:11:10;;;;;;;17.17;8.77;;;7.60;99.90;;;;;;4993425;28;20034;-65
2023/11/19 00:13:36;;;;;;;18.00;9.23;;;7.70;99.90;;;;;;4996623;28;20057;-65
2023/11/19 00:16:04;;;;;;;18.55;8.60;;;7.70;99.90;;;;;;4998152;28;20032;-65
2023/11/19 00:18:29;;;;;;;15.38;8.88;;;7.70;99.90;;;;;;4999612;28;20113;-66
2023/11/19 00:20:55;;;;;;;15.67;7.90;;;7.70;99.90;;;;;;4993849;28;20101;-65
2023/11/19 00:23:21;;;;;;;16.40;9.37;;;7.70;99.90;;;;;;5000184;28;20105;-66
2023/11/19 00:25:47;;;;;;;15.17;9.23;;;7.70;99.90;;;;;;4997664;28;20045;-66
2023/11/19 00:28:13;;;;;;;15.98;9.45;;;7.70;99.90;;;;;;4994324;28;20030;-65
2023/11/19 00:30:40;;;;;;;19.07;8.97;;;7.70;99.90;;;;;;4997448;28;20388;-65
2023/11/19 00:33:06;;;;;;;16.63;8.80;;;7.70;99.90;;;;;;4998562;28;20079;-65
2023/11/19 00:35:32;;;;;;;14.50;8.68;;;7.70;99.90;;;;;;4995780;28;20034;-65
2023/11/19 00:37:58;;;;;;;15.75;8.68;;;7.70;99.90;;;;;;4994720;28;20687;-65
2023/11/19 00:40:24;;;;;;;19.20;8.80;;;7.70;99.90;;;;;;4998544;28;20050;-65
2023/11/19 00:42:50;;;;;;;19.17;9.80;;;7.60;99.90;;;;;;5002043;28;20037;-65
2023/11/19 00:45:16;;;;;;;15.43;8.65;;;7.50;99.90;;;;;;4998568;28;20511;-66
2023/11/19 00:47:41;;;;;;;17.17;9.27;;;7.50;99.90;;;;;;4996955;28;20041;-65
2023/11/19 00:50:11;;;;;;;16.30;9.97;;;7.60;99.90;;;;;;4993425;28;20030;-65
2023/11/19 00:52:37;;;;;;;14.85;8.70;;;7.60;99.90;;;;;;4993568;28;20907;-65
2023/11/19 00:55:04;;;;;;;13.45;8.50;;;7.50;99.90;;;;;;5000677;28;20109;-65
2023/11/19 00:57:32;;;;;;;17.02;10.10;;;7.50;99.90;;;;;;4995375;28;20105;-66
2023/11/19 00:59:59;;;;;;;17.98;9.50;;;7.50;99.90;;;;;;4991519;28;20030;-65
2023/11/19 01:02:25;;;;;;;;;;;7.50;99.90;;;;;;4992421;28;20031;-66
2023/11/19 01:04:50;;;;;;;12.80;8.15;;;7.50;99.90;;;;;;4997685;28;19905;-65
2023/11/19 01:07:16;;;;;;;15.30;8.83;;;7.50;99.90;;;;;;4994240;28;20022;-65
2023/11/19 01:09:43;;;;;;;15.32;9.52;;;7.50;99.90;;;;;;4998223;28;20128;-65
2023/11/19 01:12:10;;;;;;;14.27;8.25;;;7.50;99.90;;;;;;4997487;28;20084;-65
2023/11/19 01:14:35;;;;;;;20.23;9.18;;;7.50;99.90;;;;;;4991373;28;20033;-65
2023/11/19 01:17:01;;;;;;;14.43;8.45;;;7.50;99.90;;;;;;5000922;28;20026;-65
2023/11/19 01:19:28;;;;;;;15.33;8.43;;;7.60;99.90;;;;;;4996063;28;20051;-65
2023/11/19 01:21:54;;;;;;;13.50;8.70;;;7.60;99.90;;;;;;4995672;28;20372;-65
2023/11/19 01:24:20;;;;;;;17.42;8.40;;;7.60;99.90;;;;;;4997496;28;20045;-65
2023/11/19 01:26:46;;;;;;;14.88;8.45;;;7.70;99.90;;;;;;4995598;28;20562;-66
2023/11/19 01:29:15;;;;;;;13.07;7.60;;;7.70;99.90;;;;;;4995783;28;20101;-65
2023/11/19 01:31:51;;;;;;;17.92;8.85;;;7.70;99.90;;;;;;5002913;28;20061;-65
2023/11/19 01:34:16;;;;;;;11.05;6.95;;;7.60;99.90;;;;;;4997532;28;20095;-65
2023/11/19 01:36:42;;;;;;;16.03;7.83;;;7.60;99.90;;;;;;4996204;28;20033;-65
2023/11/19 01:39:08;;;;;;;15.63;8.33;;;7.50;99.90;;;;;;4997799;28;20305;-65
2023/11/19 01:41:38;;;;;;;13.27;7.30;;;7.40;99.90;;;;;;4994447;28;20049;-65
2023/11/19 01:44:06;;;;;;;15.23;7.45;;;7.40;99.90;;;;;;4992137;28;20034;-65
2023/11/19 01:46:32;;;;;;;15.38;8.43;;;7.60;99.90;;;;;;4993876;28;20027;-66
2023/11/19 01:48:59;;;;;;;15.65;8.30;;;7.60;99.90;;;;;;4997563;28;20031;-65
2023/11/19 01:51:26;;;;;;;12.30;7.65;;;7.70;99.90;;;;;;4997429;28;20069;-65
2023/11/19 01:53:52;;;;;;;18.08;7.75;;;7.70;99.90;;;;;;4990600;28;20027;-66
2023/11/19 01:56:18;;;;;;;;;;;7.70;99.90;;;;;;4997569;28;20033;-66
2023/11/19 01:58:48;;;;;;;16.13;7.22;;;7.70;99.90;;;;;;5002159;28;20020;-66
2023/11/19 02:01:14;;;;;;;14.30;7.30;;;7.70;99.90;;;;;;4986044;28;20026;-65
2023/11/19 02:03:40;;;;;;;19.55;8.65;;;7.70;99.90;;;;;;4996507;28;20075;-65
2023/11/19 02:06:07;;;;;;;20.25;7.65;;;7.70;99.90;;;;;;5000331;28;20077;-65
2023/11/19 02:08:32;;;;;;;;;;;7.60;99.90;;;;;;5001072;28;20038;-65
2023/11/19 02:10:59;;;;;;;14.27;7.50;;;7.60;99.90;;;;;;5005002;28;19909;-65
2023/11/19 02:13:26;;;;;;;13.25;7.57;;;7.60;99.90;;;;;;5001150;28;20109;-65
2023/11/19 02:15:51;;;;;;;13.73;7.68;;;7.70;99.90;;;;;;4992507;28;20015;-65
2023/11/19 02:18:21;;;;;;;11.10;7.50;;;7.80;99.90;;;;;;5003077;28;20040;-65
2023/11/19 02:20:49;;;;;;;16.80;8.52;;;7.90;99.90;;;;;;4999007;28;20421;-65
2023/11/19 02:23:15;;;;;;;18.05;8.32;;;7.90;99.90;;;;;;4988977;28;20041;-65
2023/11/19 02:25:41;;;;;;;15.00;8.43;;;7.90;99.90;;;;;;4998826;28;20030;-65
2023/11/19 02:28:08;;;;;;;13.07;7.88;;;7.90;99.90;;;;;;4996376;28;20041;-65
2023/11/19 02:30:33;;;;;;;14.90;8.68;;;7.90;99.90;;;;;;4996861;28;20093;-65
2023/11/19 02:33:05;;;;;;;14.83;8.43;;;7.90;99.90;;;;;;4992919;28;20445;-65
2023/11/19 02:35:32;;;;;;;15.35;7.13;;;7.90;99.90;;;;;;5005375;28;20099;-65
2023/11/19 02:38:03;;;;;;;13.38;7.95;;;7.70;99.90;;;;;;4996694;28;20109;-65
2023/11/19 02:40:29;;;;;;;17.45;8.68;;;7.70;99.90;;;;;;4992231;28;20035;-65
2023/11/19 02:42:55;;;;;;;14.88;8.13;;;7.90;99.90;;;;;;5000505;28;20487;-65
2023/11/19 02:45:23;;;;;;;16.20;9.77;;;8.00;99.90;;;;;;4988665;28;20106;-65
2023/11/19 02:47:49;;;;;;;19.63;9.20;;;8.10;99.90;;;;;;4993670;28;20061;-66
2023/11/19 02:50:15;;;;;;;16.05;8.68;;;8.10;99.90;;;;;;5000129;28;20101;-65
2023/11/19 02:52:45;;;;;;;13.15;7.45;;;8.10;99.90;;;;;;4991996;28;20025;-65
2023/11/19 02:55:15;;;;;;;12.40;7.40;;;8.10;99.90;;;;;;4994038;28;20080;-65
2023/11/19 02:57:50;;;;;;;17.80;9.32;;;8.20;99.90;;;;;;5003591;28;20030;-65
2023/11/19 03:00:17;;;;;;;20.05;11.57;;;8.20;99.90;;;;;;4990907;28;20045;-65
2023/11/19 03:02:54;;;;;;;18.95;8.32;;;8.30;99.90;;;;;;4992317;28;20045;-65
2023/11/19 03:05:19;;;;;;;20.00;10.63;;;8.20;99.90;;;;;;5004740;28;20041;-66
2023/11/19 03:07:45;;;;;;;18.77;8.80;;;8.20;99.90;;;;;;5002114;28;20396;-65
2023/11/19 03:10:15;;;;;;;18.02;8.80;;;8.20;99.90;;;;;;4986620;28;20467;-65
2023/11/19 03:12:41;;;;;;;17.23;9.43;;;8.20;99.90;;;;;;4999183;28;20034;-65
2023/11/19 03:15:09;;;;;;;23.23;12.75;;;8.20;99.90;;;;;;4997903;28;20026;-65
2023/11/19 03:17:44;;;;;;;16.98;9.20;;;8.20;99.90;;;;;;4993561;28;20046;-65
2023/11/19 03:20:17;;;;;;;15.93;8.80;;;8.20;99.90;;;;;;4992528;28;20495;-65
2023/11/19 03:22:43;;;;;;;13.88;8.30;;;8.30;99.90;;;;;;4994120;28;20024;-65
2023/11/19 03:25:10;;;;;;;33.40;15.70;;;8.30;99.90;;;;;;5016799;28;20034;-65
2023/11/19 03:27:39;;;;;;;19.45;10.05;;;8.30;99.90;;;;;;4999496;28;20480;-65
2023/11/19 03:30:06;;;;;;;15.52;8.43;;;8.20;99.90;;;;;;4996745;28;20518;-65
2023/11/19 03:32:34;;;;;;;18.60;8.88;;;8.20;99.90;;;;;;4990585;28;20031;-65
2023/11/19 03:35:00;;;;;;;15.60;8.95;;;8.20;99.90;;;;;;4995558;28;20033;-65
2023/11/19 03:37:26;;;;;;;15.17;8.27;;;8.20;99.90;;;;;;4996355;28;20540;-65
2023/11/19 03:39:54;;;;;;;13.43;7.85;;;8.30;99.90;;;;;;4988475;28;20031;-65
2023/11/19 03:42:20;;;;;;;25.00;11.23;;;8.30;99.90;;;;;;4989392;28;20031;-65
2023/11/19 03:44:46;;;;;;;30.02;14.15;;;8.30;99.90;;;;;;5000327;28;20037;-65
2023/11/19 03:47:12;;;;;;;39.13;15.43;;;8.30;99.90;;;;;;4989771;28;20042;-65
2023/11/19 03:49:37;;;;;;;33.83;12.93;;;8.30;99.90;;;;;;4992506;28;20030;-65
2023/11/19 03:52:03;;;;;;;25.53;11.40;;;8.20;99.90;;;;;;4993049;28;20134;-65
2023/11/19 03:54:29;;;;;;;19.65;10.25;;;8.30;99.90;;;;;;4994182;28;20029;-65
2023/11/19 03:56:54;;;;;;;19.27;9.23;;;8.40;99.90;;;;;;4992819;28;20026;-65
2023/11/19 03:59:20;;;;;;;17.00;9.13;;;8.40;99.90;;;;;;4995318;28;20034;-65
2023/11/19 04:01:46;;;;;;;15.93;8.70;;;8.40;99.90;;;;;;4989520;28;20392;-65
2023/11/19 04:04:12;;;;;;;16.97;7.63;;;8.30;99.90;;;;;;4993446;28;20028;-65
2023/11/19 04:06:37;;;;;;;14.20;7.93;;;8.30;99.90;;;;;;4999658;28;20022;-65
2023/11/19 04:09:03;;;;;;;13.37;7.73;;;8.30;99.90;;;;;;4998290;28;20038;-65
2023/11/19 04:11:29;;;;;;;17.40;9.10;;;8.30;99.90;;;;;;4992883;28;20289;-65
2023/11/19 04:13:54;;;;;;;18.10;9.50;;;8.40;99.90;;;;;;5003547;28;20396;-65
2023/11/19 04:16:28;;;;;;;17.47;8.63;;;8.40;99.90;;;;;;5002219;28;20026;-65
2023/11/19 04:18:53;;;;;;;19.58;8.88;;;8.40;99.90;;;;;;4991552;28;20129;-65
2023/11/19 04:21:19;;;;;;;16.70;8.23;;;8.40;99.90;;;;;;4993691;28;20113;-65
2023/11/19 04:23:44;;;;;;;17.23;7.40;;;8.40;99.90;;;;;;4991712;28;20030;-65
2023/11/19 04:26:10;;;;;;;15.20;8.30;;;8.40;99.90;;;;;;4993612;28;20042;-65
2023/11/19 04:28:36;;;;;;;13.80;8.37;;;8.40;99.90;;;;;;5001657;28;20048;-65
2023/11/19 04:31:03;;;;;;;18.10;7.93;;;8.40;99.90;;;;;;4992370;28;20019;-65
2023/11/19 04:33:28;;;;;;;12.77;7.50;;;8.50;99.90;;;;;;4993254;28;20570;-65
2023/11/19 04:35:54;;;;;;;13.00;7.30;;;8.40;99.90;;;;;;4997081;28;20096;-65
2023/11/19 04:38:20;;;;;;;15.43;7.97;;;8.50;99.90;;;;;;4997631;28;20065;-67
2023/11/19 04:40:45;;;;;;;14.17;7.73;;;8.50;99.90;;;;;;4985467;28;20508;-65
2023/11/19 04:43:11;;;;;;;13.57;8.13;;;8.50;99.90;;;;;;4995907;28;20026;-65
2023/11/19 04:45:36;;;;;;;15.27;8.20;;;8.50;99.90;;;;;;4997964;28;20503;-65
2023/11/19 04:48:02;;;;;;;15.13;7.00;;;8.50;99.90;;;;;;4986819;28;20041;-65
2023/11/19 04:50:28;;;;;;;14.73;7.37;;;8.50;99.90;;;;;;4992146;28;20061;-65
2023/11/19 04:52:53;;;;;;;13.93;8.07;;;8.50;99.90;;;;;;4997090;28;20019;-65
2023/11/19 04:55:19;;;;;;;13.67;7.77;;;8.50;99.90;;;;;;4992584;28;20030;-65
2023/11/19 04:57:45;;;;;;;15.77;7.53;;;8.50;99.90;;;;;;4999530;28;20030;-65
2023/11/19 05:00:11;;;;;;;13.73;7.80;;;8.50;99.90;;;;;;4995336;28;20034;-65
2023/11/19 05:02:37;;;;;;;13.82;7.50;;;8.50;99.90;;;;;;4994840;28;20033;-65
2023/11/19 05:05:06;;;;;;;12.32;7.28;;;8.50;99.90;;;;;;4995090;28;20041;-65
2023/11/19 05:07:32;;;;;;;14.90;7.40;;;8.50;99.90;;;;;;4992943;28;20077;-66
2023/11/19 05:09:58;;;;;;;17.20;7.33;;;8.60;99.90;;;;;;5000163;28;20027;-65
2023/11/19 05:12:24;;;;;;;14.35;7.45;;;8.60;99.90;;;;;;5001534;28;20034;-65
2023/11/19 05:14:50;;;;;;;12.80;7.53;;;8.60;99.90;;;;;;4997941;28;20022;-65
2023/11/19 05:17:19;;;;;;;11.35;6.68;;;8.60;99.90;;;;;;4999250;28;20076;-66
2023/11/19 05:19:45;;;;;;;16.05;8.38;;;8.50;99.90;;;;;;5003726;28;20634;-65
2023/11/19 05:22:10;;;;;;;16.15;7.85;;;8.60;99.90;;;;;;5001457;28;20029;-65
2023/11/19 05:24:36;;;;;;;15.63;8.17;;;8.60;99.90;;;;;;5001037;28;20045;-65
2023/11/19 05:27:02;;;;;;;13.97;7.50;;;8.60;99.90;;;;;;4984234;28;20059;-65
2023/11/19 05:29:28;;;;;;;14.20;8.13;;;8.60;99.90;;;;;;4991750;28;20508;-65
2023/11/19 05:31:55;;;;;;;15.65;7.97;;;8.60;99.90;;;;;;5001600;28;20030;-65
2023/11/19 05:34:21;;;;;;;18.10;9.35;;;8.60;99.90;;;;;;4995842;28;20496;-65
2023/11/19 05:36:46;;;;;;;15.43;9.55;;;8.70;99.90;;;;;;5000581;28;20088;-65
2023/11/19 05:39:12;;;;;;;18.20;10.37;;;8.60;99.90;;;;;;5001474;28;20053;-65
2023/11/19 05:41:38;;;;;;;17.30;9.13;;;8.60;99.90;;;;;;4995723;28;20051;-65
2023/11/19 05:44:03;;;;;;;18.43;9.37;;;8.60;99.90;;;;;;4998127;28;20067;-65
2023/11/19 05:46:29;;;;;;;17.97;9.33;;;8.50;99.90;;;;;;4998632;28;20037;-65
2023/11/19 05:48:55;;;;;;;18.27;9.80;;;8.50;99.90;;;;;;4994783;28;20030;-64
2023/11/19 05:51:20;;;;;;;21.50;9.47;;;8.30;99.90;;;;;;5002095;28;20343;-65
2023/11/19 05:53:46;;;;;;;21.13;9.43;;;8.20;99.90;;;;;;5002830;28;20080;-65
2023/11/19 05:56:11;;;;;;;15.23;8.77;;;8.20;99.90;;;;;;4999464;28;20026;-65
2023/11/19 05:58:39;;;;;;;17.27;9.67;;;8.30;99.90;;;;;;4998056;28;20034;-65
2023/11/19 06:01:07;;;;;;;14.18;9.43;;;8.30;99.90;;;;;;5002498;28;20519;-65
2023/11/19 06:03:32;;;;;;;23.50;9.65;;;8.40;99.90;;;;;;5000132;28;20037;-65
2023/11/19 06:05:58;;;;;;;15.15;9.32;;;8.30;99.90;;;;;;4995408;28;20027;-65
2023/11/19 06:08:26;;;;;;;15.03;8.07;;;8.30;99.90;;;;;;5000372;28;20029;-67
2023/11/19 06:10:52;;;;;;;33.83;12.02;;;8.30;99.90;;;;;;4999457;28;20229;-65
2023/11/19 06:13:19;;;;;;;20.40;9.45;;;8.20;99.90;;;;;;4994632;28;20113;-65
2023/11/19 06:15:45;;;;;;;15.98;8.63;;;8.10;99.90;;;;;;4994775;28;20025;-65
2023/11/19 06:18:12;;;;;;;14.20;8.67;;;8.10;99.90;;;;;;5000695;28;20026;-65
2023/11/19 06:20:37;;;;;;;18.80;9.32;;;7.90;99.90;;;;;;5005416;28;20120;-65
2023/11/19 06:23:03;;;;;;;16.03;9.07;;;7.80;99.90;;;;;;5000629;28;20077;-66
2023/11/19 06:25:28;;;;;;;16.50;9.67;;;7.80;99.90;;;;;;4999166;28;20563;-65
2023/11/19 06:27:54;;;;;;;18.30;8.97;;;7.80;99.90;;;;;;5000153;28;20033;-65
2023/11/19 06:30:23;;;;;;;21.10;9.13;;;7.80;99.90;;;;;;4995735;28;20161;-65
2023/11/19 06:32:48;;;;;;;17.15;9.15;;;7.80;99.90;;;;;;4994665;28;20037;-65
2023/11/19 06:35:14;;;;;;;20.50;9.47;;;7.80;99.90;;;;;;4997757;28;20396;-65
2023/11/19 06:37:41;;;;;;;17.10;9.13;;;7.80;99.90;;;;;;4994506;28;20393;-65
2023/11/19 06:40:09;;;;;;;17.20;8.38;;;7.80;99.90;;;;;;4996344;28;20030;-65
2023/11/19 06:42:35;;;;;;;14.48;8.00;;;7.80;99.90;;;;;;4998418;28;20046;-65
2023/11/19 06:45:01;;;;;;;18.15;9.32;;;7.80;99.90;;;;;;4993926;28;20014;-65
2023/11/19 06:47:27;;;;;;;18.73;10.32;;;7.80;99.90;;;;;;4993257;28;20710;-65
2023/11/19 06:49:53;;;;;;;;;;;7.70;99.90;;;;;;5002581;28;20021;-65
2023/11/19 06:52:19;;;;;;;14.27;8.73;;;7.70;99.90;;;;;;5035839;28;19909;-65
2023/11/19 06:54:45;;;;;;;15.70;8.43;;;7.70;99.90;;;;;;5002982;28;20030;-65
2023/11/19 06:57:11;;;;;;;19.38;11.90;;;7.70;99.90;;;;;;4995047;28;20030;-65
2023/11/19 06:59:37;;;;;;;24.08;15.00;;;7.70;99.90;;;;;;5001285;28;20479;-65
2023/11/19 07:02:04;;;;;;;27.33;15.18;;;7.70;99.90;;;;;;4991358;28;20127;-65
2023/11/19 07:04:30;;;;;;;26.35;15.43;;;7.60;99.90;;;;;;5003070;28;20558;-65
2023/11/19 07:06:56;;;;;;;24.33;12.02;;;7.60;99.90;;;;;;4994395;28;20246;-65
2023/11/19 07:09:23;;;;;;;17.03;10.87;;;7.60;99.90;;;;;;4996109;28;20104;-65
2023/11/19 07:11:51;;;;;;;15.45;10.15;;;7.60;99.90;;;;;;4998670;28;20034;-65
2023/11/19 07:14:17;;;;;;;18.85;10.52;;;7.60;99.90;;;;;;4994458;28;20443;-65
2023/11/19 07:16:43;;;;;;;20.90;10.73;;;7.60;99.90;;;;;;4997966;28;20037;-66
2023/11/19 07:19:09;;;;;;;16.23;10.10;;;7.60;99.90;;;;;;5010996;28;20095;-65
2023/11/19 07:21:35;;;;;;;21.63;11.10;;;7.60;99.90;;;;;;4994280;28;20097;-65
2023/11/19 07:24:02;;;;;;;17.90;10.27;;;7.60;99.90;;;;;;4992301;28;20294;-65
2023/11/19 07:26:27;;;;;;;17.67;10.95;;;7.60;99.90;;;;;;5002741;28;20091;-65
2023/11/19 07:28:53;;;;;;;15.63;9.27;;;7.60;99.90;;;;;;4998870;28;20031;-65
2023/11/19 07:31:19;;;;;;;14.97;8.67;;;7.60;99.90;;;;;;4989622;28;20516;-65
2023/11/19 07:33:45;;;;;;;16.05;7.65;;;7.70;99.90;;;;;;4998533;28;20049;-65
2023/11/19 07:36:12;;;;;;;15.15;9.13;;;7.70;99.90;;;;;;4999625;28;20105;-65
2023/11/19 07:38:38;;;;;;;17.50;8.75;;;7.90;99.90;;;;;;4995082;28;20616;-65
2023/11/19 07:41:09;;;;;;;13.90;8.77;;;8.50;99.90;;;;;;4991995;28;20034;-65
2023/11/19 07:43:35;;;;;;;15.60;8.90;;;9.20;99.90;;;;;;4999232;28;20027;-65
2023/11/19 07:46:03;;;;;;;17.98;8.82;;;10.40;99.90;;;;;;4993456;28;20026;-65
2023/11/19 07:48:29;;;;;;;15.73;8.05;;;11.20;99.90;;;;;;4992497;28;20492;-65
2023/11/19 07:50:54;;;;;;;14.83;7.30;;;12.60;99.90;;;;;;5003659;28;20041;-65
2023/11/19 07:53:20;;;;;;;13.23;7.53;;;13.60;96.90;;;;;;5001347;28;20018;-65
2023/11/19 07:55:46;;;;;;;10.47;6.73;;;14.50;94.60;;;;;;5002311;28;20035;-66
2023/11/19 07:58:12;;;;;;;11.38;6.53;;;14.10;94.00;;;;;;4993252;28;20273;-66
2023/11/19 08:00:38;;;;;;;13.90;5.97;;;15.10;91.90;;;;;;5001800;28;20520;-65
2023/11/19 08:03:04;;;;;;;12.82;6.63;;;14.70;91.30;;;;;;5000030;28;20084;-65
2023/11/19 08:05:30;;;;;;;15.00;7.82;;;14.40;93.20;;;;;;4992561;28;20042;-65
2023/11/19 08:07:56;;;;;;;14.27;8.05;;;12.80;93.20;;;;;;4995342;28;20038;-65
2023/11/19 08:10:22;;;;;;;13.53;7.17;;;11.30;99.90;;;;;;5000153;28;20056;-65
2023/11/19 08:12:48;;;;;;;11.38;6.50;;;10.90;99.90;;;;;;4992593;28;20034;-65
2023/11/19 08:15:14;;;;;;;8.82;6.28;;;10.70;99.90;;;;;;4991459;28;20033;-65
2023/11/19 08:17:39;;;;;;;13.10;6.15;;;10.60;99.90;;;;;;4996192;28;20026;-64
2023/11/19 08:20:10;;;;;;;10.23;5.93;;;10.60;99.90;;;;;;4996559;28;20117;-65
2023/11/19 08:22:39;;;;;;;9.75;5.80;;;10.50;99.90;;;;;;4996205;28;20166;-67
2023/11/19 08:25:05;;;;;;;9.73;5.47;;;10.60;99.90;;;;;;4997001;28;20023;-65
2023/11/19 08:27:31;;;;;;;;;;;10.60;99.90;;;;;;4987456;28;20104;-66
2023/11/19 08:29:56;;;;;;;10.68;5.65;;;10.60;99.90;;;;;;4994361;28;20383;-65
2023/11/19 08:32:28;;;;;;;13.90;5.97;;;10.50;99.90;;;;;;4995785;28;20049;-65
2023/11/19 08:34:54;;;;;;;11.02;6.70;;;10.40;99.90;;;;;;4993748;28;20032;-65
2023/11/19 08:37:23;;;;;;;10.35;7.40;;;11.00;99.90;;;;;;4989763;28;20035;-66
2023/11/19 08:39:49;;;;;;;10.65;6.53;;;14.70;95.60;;;;;;4999781;28;20038;-65
2023/11/19 08:42:15;;;;;;;8.90;5.88;;;14.10;94.60;;;;;;4989889;28;20018;-65
2023/11/19 08:44:46;;;;;;;10.98;6.25;;;13.30;96.10;;;;;;4994463;28;20369;-65
2023/11/19 08:47:12;;;;;;;15.25;6.65;;;12.60;99.90;;;;;;4994209;28;20030;-65
2023/11/19 08:49:39;;;;;;;10.45;6.05;;;12.20;99.90;;;;;;4993205;28;20030;-65
2023/11/19 08:52:07;;;;;;;7.55;5.35;;;12.30;99.90;;;;;;4995912;28;20079;-65
2023/11/19 08:54:33;;;;;;;10.00;5.85;;;12.40;99.90;;;;;;4995953;28;20509;-65
2023/11/19 08:56:59;;;;;;;10.40;6.05;;;12.50;99.90;;;;;;4992639;28;20057;-65
2023/11/19 08:59:25;;;;;;;11.68;6.95;;;12.60;99.90;;;;;;4999059;28;20042;-65
2023/11/19 09:01:50;;;;;;;11.27;7.10;;;12.40;99.90;;;;;;4995885;28;20037;-65
2023/11/19 09:04:16;;;;;;;11.10;6.60;;;12.60;99.90;;;;;;4999478;28;20050;-65
2023/11/19 09:06:42;;;;;;;7.87;5.30;;;13.10;99.90;;;;;;4997969;28;20148;-66
2023/11/19 09:09:09;;;;;;;11.02;6.90;;;13.10;98.10;;;;;;4994908;28;20737;-66
2023/11/19 09:11:36;;;;;;;16.17;7.28;;;13.20;98.40;;;;;;5013148;28;20077;-65
2023/11/19 09:14:02;;;;;;;12.90;7.72;;;12.90;99.90;;;;;;4990086;28;20014;-65
2023/11/19 09:16:28;;;;;;;10.43;6.73;;;12.70;99.50;;;;;;4992374;28;20038;-66
2023/11/19 09:18:53;;;;;;;13.43;7.57;;;12.60;99.90;;;;;;4992200;28;20030;-65
2023/11/19 09:21:19;;;;;;;13.07;9.00;;;12.40;99.90;;;;;;4992082;28;20396;-67
2023/11/19 09:23:44;;;;;;;16.80;8.50;;;12.20;99.90;;;;;;5002467;28;20029;-65
2023/11/19 09:26:10;;;;;;;14.47;8.17;;;12.60;99.90;;;;;;4994318;28;20031;-65
2023/11/19 09:28:36;;;;;;;13.35;7.70;;;13.00;99.00;;;;;;4998533;28;20273;-66
2023/11/19 09:31:04;;;;;;;16.37;8.20;;;13.10;98.60;;;;;;4995054;28;20034;-66
2023/11/19 09:33:30;;;;;;;15.20;7.75;;;13.00;99.40;;;;;;4994572;28;20018;-65
2023/11/19 09:35:56;;;;;;;15.15;7.53;;;12.90;99.30;;;;;;5000349;28;20495;-65
2023/11/19 09:38:22;;;;;;;15.73;8.90;;;12.80;99.00;;;;;;4996284;28;20069;-66
2023/11/19 09:40:48;;;;;;;13.85;8.02;;;12.70;99.90;;;;;;4991621;28;20423;-65
2023/11/19 09:43:15;;;;;;;16.60;8.60;;;12.70;99.90;;;;;;4998473;28;20056;-65
2023/11/19 09:45:50;;;;;;;19.90;8.05;;;12.70;99.90;;;;;;4995822;28;20034;-65
2023/11/19 09:48:19;;;;;;;17.75;8.02;;;12.90;99.40;;;;;;4985824;28;20039;-65
2023/11/19 09:50:48;;;;;;;14.07;7.75;;;13.10;99.30;;;;;;5000562;28;20638;-66
2023/11/19 09:53:15;;;;;;;13.07;7.30;;;13.30;99.00;;;;;;4999224;28;20457;-65
2023/11/19 09:55:41;;;;;;;11.93;7.60;;;13.60;98.40;;;;;;4995485;28;20026;-65
2023/11/19 09:58:07;;;;;;;14.52;6.85;;;13.70;98.30;;;;;;4993907;28;20108;-65
2023/11/19 10:00:34;;;;;;;18.42;7.93;;;13.90;97.90;;;;;;4997684;28;20137;-65
2023/11/19 10:03:00;;;;;;;13.90;7.18;;;14.20;97.60;;;;;;4999190;28;20033;-66
2023/11/19 10:05:26;;;;;;;10.25;7.00;;;14.70;96.50;;;;;;4996767;28;20022;-66
2023/11/19 10:07:55;;;;;;;11.35;7.15;;;14.70;96.00;;;;;;4999711;28;20040;-65
2023/11/19 10:10:21;;;;;;;11.23;6.80;;;14.80;95.80;;;;;;4986352;28;20041;-65
2023/11/19 10:12:47;;;;;;;9.73;6.00;;;14.90;95.60;;;;;;4994999;28;20042;-67
2023/11/19 10:15:35;;;;;;;16.13;6.17;;;14.90;95.90;;;;;;4988122;28;20500;-66
2023/11/19 10:18:01;;;;;;;9.82;6.10;;;14.70;96.80;;;;;;4993520;28;20026;-66
2023/11/19 10:20:27;;;;;;;13.10;6.70;;;14.60;96.80;;;;;;5001817;28;20436;-67
2023/11/19 10:22:56;;;;;;;13.50;6.47;;;14.50;96.90;;;;;;4995585;28;20566;-66
2023/11/19 10:25:27;;;;;;;10.82;6.28;;;14.40;97.20;;;;;;4997431;28;20022;-65
2023/11/19 10:27:53;;;;;;;9.75;5.13;;;14.30;97.10;;;;;;4996758;28;20022;-66
2023/11/19 10:30:26;;;;;;;11.15;6.00;;;14.20;98.70;;;;;;4998512;28;20038;-66
2023/11/19 10:33:17;;;;;;;11.18;5.40;;;14.10;99.00;;;;;;5000025;28;20088;-66
2023/11/19 10:35:54;;;;;;;10.50;6.25;;;14.20;98.40;;;;;;4987500;28;20022;-66
2023/11/19 10:38:20;;;;;;;8.43;5.60;;;14.50;98.30;;;;;;4991860;28;20507;-67
2023/11/19 10:40:47;;;;;;;7.82;6.20;;;14.60;96.50;;;;;;4998990;28;20033;-66
2023/11/19 10:43:12;;;;;;;13.07;7.15;;;14.70;95.80;;;;;;4994029;28;20029;-66
2023/11/19 10:45:39;;;;;;;12.45;6.57;;;14.80;96.00;;;;;;4992581;28;20113;-66
2023/11/19 10:48:09;;;;;;;10.30;6.30;;;14.80;96.30;;;;;;4988000;28;20026;-67
2023/11/19 10:50:41;;;;;;;10.35;6.38;;;15.00;96.30;;;;;;5001403;28;20405;-66
2023/11/19 10:53:10;;;;;;;11.10;6.60;;;14.90;96.30;;;;;;4988240;28;20041;-66
2023/11/19 10:55:40;;;;;;;9.57;6.25;;;14.90;96.80;;;;;;5004703;28;20034;-66
2023/11/19 10:58:08;;;;;;;14.35;7.85;;;14.80;96.40;;;;;;4997863;28;20030;-65
2023/11/19 11:00:57;;;;;;;14.73;8.30;;;14.80;97.40;;;;;;4990477;28;20084;-68
2023/11/19 11:03:27;;;;;;;15.30;9.13;;;14.60;98.20;;;;;;4992925;28;20073;-66
2023/11/19 11:05:53;;;;;;;18.35;8.57;;;14.50;98.50;;;;;;4997348;28;20033;-66
2023/11/19 11:08:20;;;;;;;12.35;7.63;;;14.50;98.60;;;;;;4994019;28;20061;-67
2023/11/19 11:10:53;;;;;;;19.80;10.45;;;14.40;98.80;;;;;;4999696;28;20041;-67
2023/11/19 11:13:19;;;;;;;17.20;8.02;;;14.40;99.40;;;;;;4992995;28;20407;-67
2023/11/19 11:15:46;;;;;;;12.02;7.32;;;14.50;99.40;;;;;;4986384;28;20121;-66
2023/11/19 11:18:13;;;;;;;14.80;6.50;;;14.60;99.80;;;;;;4997285;28;20030;-66
2023/11/19 11:20:39;;;;;;;11.45;7.10;;;14.60;99.00;;;;;;4999716;28;20049;-68
2023/11/19 11:23:08;;;;;;;;;;;14.60;99.30;;;;;;4998522;28;20074;-67
2023/11/19 11:25:42;;;;;;;11.30;6.20;;;14.70;98.70;;;;;;5005537;28;20267;-69
2023/11/19 11:28:17;;;;;;;11.30;6.72;;;14.60;99.00;;;;;;5000634;28;20416;-65
2023/11/19 11:31:23;;;;;;;16.50;7.03;;;14.60;99.90;;;;;;4992601;28;20747;-67
2023/11/19 11:34:11;;;;;;;12.73;6.88;;;14.50;99.60;;;;;;4994898;28;20506;-68
2023/11/19 11:36:57;;;;;;;14.23;7.05;;;14.50;99.40;;;;;;4987788;28;20034;-70
2023/11/19 11:39:26;;;;;;;17.75;6.90;;;14.50;99.70;;;;;;4992918;28;20040;-66
2023/11/19 11:42:17;;;;;;;13.93;7.50;;;14.60;99.90;;;;;;4992283;28;20022;-68
2023/11/19 11:44:58;;;;;;;11.93;6.88;;;14.60;99.90;;;;;;4995431;28;20450;-68
2023/11/19 11:47:24;;;;;;;12.75;6.32;;;14.70;99.90;;;;;;4997829;28;20454;-68
2023/11/19 11:49:52;;;;;;;11.37;6.27;;;14.80;99.90;;;;;;4989492;28;20050;-66
2023/11/19 11:52:17;;;;;;;13.90;6.65;;;14.90;99.80;;;;;;4995253;28;20030;-67
2023/11/19 11:54:44;;;;;;;11.00;6.67;;;15.00;99.70;;;;;;4992793;28;20040;-66
2023/11/19 11:57:16;;;;;;;13.98;8.07;;;15.10;99.90;;;;;;4991404;28;20042;-66
2023/11/19 11:59:41;;;;;;;12.25;6.60;;;15.30;99.20;;;;;;4988339;28;20087;-67
2023/11/19 12:02:16;;;;;;;11.87;5.70;;;15.50;98.60;;;;;;4994197;28;20440;-67
2023/11/19 12:04:42;;;;;;;9.98;6.22;;;15.50;98.30;;;;;;4994811;28;20042;-66
2023/11/19 12:07:17;;;;;;;8.25;5.82;;;15.50;98.70;;;;;;4997747;28;20403;-66
2023/11/19 12:09:47;;;;;;;18.08;5.97;;;15.40;99.80;;;;;;4994781;28;20037;-67
2023/11/19 12:12:23;;;;;;;11.07;6.15;;;15.30;99.90;;;;;;4997905;28;20101;-66
2023/11/19 12:14:58;;;;;;;9.85;5.97;;;15.30;99.90;;;;;;4991179;28;20078;-66
2023/11/19 12:17:33;;;;;;;10.73;5.82;;;15.50;98.20;;;;;;4999868;28;20033;-66
2023/11/19 12:20:08;;;;;;;10.70;5.80;;;15.40;99.30;;;;;;4992643;28;20048;-66
2023/11/19 12:22:43;;;;;;;10.80;5.60;;;15.40;98.30;;;;;;5000418;28;20034;-66
2023/11/19 12:25:13;;;;;;;11.15;5.57;;;15.40;98.70;;;;;;4999241;28;20037;-67
2023/11/19 12:27:46;;;;;;;9.68;6.07;;;15.50;99.00;;;;;;4994061;28;20057;-66
2023/11/19 12:30:12;;;;;;;14.15;6.32;;;15.50;99.60;;;;;;4991131;28;20038;-66
2023/11/19 12:32:42;;;;;;;11.63;6.20;;;15.50;98.90;;;;;;4997470;28;20120;-66
2023/11/19 12:35:12;;;;;;;11.32;6.45;;;15.50;98.60;;;;;;4996885;28;20109;-66
2023/11/19 12:37:46;;;;;;;13.63;6.63;;;15.50;99.60;;;;;;4995638;28;20045;-68
2023/11/19 12:40:19;;;;;;;11.10;6.38;;;15.40;99.90;;;;;;4988994;28;20031;-66
2023/11/19 12:42:49;;;;;;;9.45;6.45;;;15.20;99.90;;;;;;4997545;28;20050;-66
2023/11/19 12:45:16;;;;;;;13.93;7.00;;;15.10;99.90;;;;;;4997927;28;20455;-67